createdAt,value
2023-03-22T00:02:26.764Z,97234.66
2023-03-22T00:04:54.116Z,97235.78
2023-03-22T00:07:21.413Z,97229.75
2023-03-22T00:09:48.828Z,97230.88
2023-03-22T00:12:16.219Z,97237.66
2023-03-22T00:14:43.535Z,97229.59
2023-03-22T00:17:11.425Z,97230.75
2023-03-22T00:19:42.453Z,97225.06
2023-03-22T00:22:11.796Z,97226.38
2023-03-22T00:24:39.176Z,97230.44
2023-03-22T00:27:06.685Z,97224.41
2023-03-22T00:29:34.045Z,97220.59
2023-03-22T00:32:01.338Z,97212.91
2023-03-22T00:34:31.843Z,97211.41
2023-03-22T00:37:00.407Z,97224.69
2023-03-22T00:39:27.977Z,97216.25
2023-03-22T00:41:55.291Z,97205.50
2023-03-22T00:44:22.524Z,97205.78
2023-03-22T00:46:49.789Z,97212.19
2023-03-22T00:49:17.388Z,97206.41
2023-03-22T00:51:44.765Z,97210.09
2023-03-22T00:54:12.471Z,97203.97
2023-03-22T00:56:40.854Z,97198.25
2023-03-22T00:59:13.168Z,97189.34
2023-03-22T01:01:41.831Z,97193.97
2023-03-22T01:04:09.283Z,97182.84
2023-03-22T01:06:37.885Z,97186.22
2023-03-22T01:09:05.319Z,97183.28
2023-03-22T01:11:32.542Z,97177.94
2023-03-22T01:13:59.957Z,97174.03
2023-03-22T01:16:27.393Z,97169.50
2023-03-22T01:18:54.946Z,97167.34
2023-03-22T01:21:22.464Z,97163.13
2023-03-22T01:23:51.086Z,97164.44
2023-03-22T01:26:18.269Z,97160.78
2023-03-22T01:28:45.693Z,97161.56
2023-03-22T01:31:13.037Z,97158.81
2023-03-22T01:33:40.334Z,97147.06
2023-03-22T01:36:42.819Z,97145.59
2023-03-22T01:44:13.626Z,97140.03
2023-03-22T01:46:41.833Z,97137.22
2023-03-22T01:49:12.450Z,97139.97
2023-03-22T01:51:43.688Z,97136.09
2023-03-22T01:54:30.881Z,97130.66
2023-03-22T01:56:59.856Z,97129.97
2023-03-22T01:59:35.770Z,97122.03
2023-03-22T02:02:26.108Z,97118.38
2023-03-22T02:05:01.831Z,97122.91
2023-03-22T02:07:32.174Z,97119.78
2023-03-22T02:10:02.238Z,97118.38
2023-03-22T02:12:40.727Z,97109.72
2023-03-22T02:15:34.232Z,97105.84
2023-03-22T02:18:43.301Z,97101.72
2023-03-22T02:21:19.880Z,97101.25
2023-03-22T02:24:02.529Z,97104.06
2023-03-22T02:26:44.456Z,97099.63
2023-03-22T02:29:26.594Z,97098.03
2023-03-22T02:32:23.901Z,97095.41
2023-03-22T02:34:54.730Z,97096.06
2023-03-22T02:37:34.463Z,97098.31
2023-03-22T02:40:16.979Z,97099.31
2023-03-22T02:42:47.304Z,97096.44
2023-03-22T02:45:21.432Z,97080.09
2023-03-22T02:47:50.114Z,97079.69
2023-03-22T02:50:23.325Z,97068.06
2023-03-22T02:52:53.917Z,97085.44
2023-03-22T02:55:26.585Z,97081.94
2023-03-22T02:58:03.610Z,97067.69
2023-03-22T03:00:31.856Z,97077.59
2023-03-22T03:03:11.492Z,97067.72
2023-03-22T03:05:54.266Z,97067.72
2023-03-22T03:08:22.335Z,97060.00
2023-03-22T03:10:50.672Z,97069.19
2023-03-22T03:13:18.635Z,97056.56
2023-03-22T03:15:49.040Z,97056.94
2023-03-22T03:18:48.834Z,97054.91
2023-03-22T03:21:35.179Z,97052.53
2023-03-22T03:24:14.916Z,97042.31
2023-03-22T03:26:43.564Z,97044.50
2023-03-22T03:29:14.832Z,97031.53
2023-03-22T03:31:48.348Z,97042.38
2023-03-22T03:34:18.589Z,97032.75
2023-03-22T03:36:52.725Z,97022.81
2023-03-22T03:39:21.497Z,97026.84
2023-03-22T03:41:50.479Z,97011.75
2023-03-22T03:44:18.249Z,97020.88
2023-03-22T03:46:46.360Z,97024.56
2023-03-22T03:49:14.783Z,97019.09
2023-03-22T03:51:46.770Z,97016.63
2023-03-22T03:54:14.143Z,97008.31
2023-03-22T03:56:41.677Z,97004.97
2023-03-22T03:59:09.457Z,97010.09
2023-03-22T04:01:36.795Z,97013.97
2023-03-22T04:04:14.429Z,97014.34
2023-03-22T04:06:46.736Z,96998.81
2023-03-22T04:09:18.273Z,96994.84
2023-03-22T04:11:50.756Z,96993.06
2023-03-22T04:14:18.298Z,96998.22
2023-03-22T04:16:48.794Z,96996.78
2023-03-22T04:19:20.114Z,96995.72
2023-03-22T04:21:47.556Z,96996.78
2023-03-22T04:24:15.289Z,97002.72
2023-03-22T04:26:45.724Z,96987.75
2023-03-22T04:29:32.464Z,96995.47
2023-03-22T04:32:19.491Z,96988.31
2023-03-22T04:34:47.022Z,96988.94
2023-03-22T04:37:17.632Z,96987.97
2023-03-22T04:40:01.336Z,96987.53
2023-03-22T04:42:47.222Z,96988.53
2023-03-22T04:45:22.405Z,96981.84
2023-03-22T04:47:55.866Z,96979.91
2023-03-22T04:50:23.298Z,96982.19
2023-03-22T04:52:56.146Z,96980.44
2023-03-22T04:55:23.900Z,96976.28
2023-03-22T04:57:51.450Z,96969.19
2023-03-22T05:00:19.068Z,96967.81
2023-03-22T05:02:47.336Z,96965.13
2023-03-22T05:05:21.922Z,96967.31
2023-03-22T05:07:51.408Z,96954.97
2023-03-22T05:10:19.241Z,96957.25
2023-03-22T05:12:47.404Z,96956.31
2023-03-22T05:15:39.907Z,96952.34
2023-03-22T05:18:07.881Z,96946.78
2023-03-22T05:20:36.885Z,96943.19
2023-03-22T05:23:24.732Z,96941.06
2023-03-22T05:25:58.483Z,96933.72
2023-03-22T05:28:29.019Z,96930.91
2023-03-22T05:31:17.431Z,96927.69
2023-03-22T05:33:52.387Z,96920.28
2023-03-22T05:36:23.169Z,96916.84
2023-03-22T05:39:10.637Z,96914.34
2023-03-22T05:41:38.134Z,96915.25
2023-03-22T05:44:05.827Z,96901.81
2023-03-22T05:46:35.765Z,96896.25
2023-03-22T05:49:35.505Z,96895.31
2023-03-22T05:52:06.215Z,96894.94
2023-03-22T05:54:52.161Z,96881.00
2023-03-22T05:57:20.072Z,96881.84
2023-03-22T05:59:47.471Z,96883.16
2023-03-22T06:02:22.520Z,96886.13
2023-03-22T06:04:50.580Z,96881.81
2023-03-22T06:07:19.085Z,96875.44
2023-03-22T06:09:56.099Z,96879.03
2023-03-22T06:12:28.894Z,96869.13
2023-03-22T06:15:04.460Z,96878.44
2023-03-22T06:17:51.884Z,96873.69
2023-03-22T06:20:23.641Z,96863.56
2023-03-22T06:22:57.999Z,96866.47
2023-03-22T06:25:25.478Z,96837.69
2023-03-22T06:27:53.126Z,96842.00
2023-03-22T06:30:22.145Z,96832.84
2023-03-22T06:33:08.156Z,96833.22
2023-03-22T06:35:39.055Z,96831.78
2023-03-22T06:38:08.919Z,96832.88
2023-03-22T06:40:38.308Z,96825.69
2023-03-22T06:43:07.322Z,96829.41
2023-03-22T06:45:38.109Z,96825.25
2023-03-22T06:48:06.420Z,96827.16
2023-03-22T06:50:46.361Z,96812.59
2023-03-22T06:53:18.547Z,96800.81
2023-03-22T06:55:45.888Z,96800.25
2023-03-22T06:58:22.207Z,96793.97
2023-03-22T07:00:49.505Z,96785.63
2023-03-22T07:03:19.221Z,96788.06
2023-03-22T07:05:52.481Z,96783.16
2023-03-22T07:08:20.116Z,96774.19
2023-03-22T07:10:51.414Z,96775.13
2023-03-22T07:13:21.937Z,96773.56
2023-03-22T07:15:56.161Z,96776.41
2023-03-22T07:18:36.374Z,96773.53
2023-03-22T07:21:03.915Z,96781.41
2023-03-22T07:23:31.368Z,96764.09
2023-03-22T07:26:06.295Z,96760.31
2023-03-22T07:28:36.106Z,96762.56
2023-03-22T07:31:06.982Z,96765.03
2023-03-22T07:33:49.816Z,96769.50
2023-03-22T07:36:17.260Z,96771.00
2023-03-22T07:38:44.782Z,96780.94
2023-03-22T07:41:17.979Z,96779.09
2023-03-22T07:44:07.646Z,96782.78
2023-03-22T07:46:47.664Z,96771.16
2023-03-22T07:49:31.607Z,96771.47
2023-03-22T07:52:11.898Z,96772.06
2023-03-22T07:54:39.570Z,96760.34
2023-03-22T07:57:08.905Z,96760.16
2023-03-22T07:59:42.144Z,96762.34
2023-03-22T08:02:10.337Z,96755.00
2023-03-22T08:04:43.999Z,96749.22
2023-03-22T08:07:20.831Z,96740.84
2023-03-22T08:09:48.323Z,96743.56
2023-03-22T08:12:15.619Z,96744.66
2023-03-22T08:14:46.673Z,96723.44
2023-03-22T08:17:18.959Z,96729.25
2023-03-22T08:19:46.842Z,96727.72
2023-03-22T08:22:26.359Z,96725.75
2023-03-22T08:25:12.336Z,96723.00
2023-03-22T08:27:40.890Z,96713.88
2023-03-22T08:30:10.123Z,96708.38
2023-03-22T08:32:37.530Z,96710.81
2023-03-22T08:35:05.411Z,96719.03
2023-03-22T08:37:32.786Z,96711.75
2023-03-22T08:40:02.333Z,96717.53
2023-03-22T08:42:38.933Z,96706.56
2023-03-22T08:45:07.075Z,96709.44
2023-03-22T08:47:37.010Z,96696.06
2023-03-22T08:50:08.903Z,96683.53
2023-03-22T08:52:47.139Z,96690.81
2023-03-22T08:55:22.373Z,96689.25
2023-03-22T08:58:07.996Z,96697.00
2023-03-22T09:00:51.535Z,96688.16
2023-03-22T09:03:34.016Z,96697.44
2023-03-22T09:06:01.909Z,96688.91
2023-03-22T09:08:34.086Z,96697.56
2023-03-22T09:11:11.471Z,96683.47
2023-03-22T09:13:39.324Z,96675.38
2023-03-22T09:16:09.184Z,96694.38
2023-03-22T09:18:37.434Z,96688.72
2023-03-22T09:21:10.602Z,96676.25
2023-03-22T09:23:50.648Z,96678.03
2023-03-22T09:26:23.083Z,96680.94
2023-03-22T09:28:52.538Z,96683.81
2023-03-22T09:31:20.691Z,96696.56
2023-03-22T09:33:55.385Z,96700.63
2023-03-22T09:36:22.670Z,96700.13
2023-03-22T09:38:50.708Z,96696.91
2023-03-22T09:41:22.307Z,96695.47
2023-03-22T09:43:59.120Z,96680.78
2023-03-22T09:46:30.175Z,96687.53
2023-03-22T09:48:58.454Z,96682.41
2023-03-22T09:51:31.958Z,96674.56
2023-03-22T09:53:59.219Z,96682.78
2023-03-22T09:56:28.017Z,96671.19
2023-03-22T09:58:55.205Z,96677.47
2023-03-22T10:01:26.425Z,96663.50
2023-03-22T10:04:01.265Z,96660.53
2023-03-22T10:06:29.589Z,96674.63
2023-03-22T10:09:19.670Z,96669.88
2023-03-22T10:11:49.632Z,96667.25
2023-03-22T10:14:25.309Z,96661.28
2023-03-22T10:16:55.391Z,96667.66
2023-03-22T10:19:27.352Z,96673.78
2023-03-22T10:21:56.588Z,96658.53
2023-03-22T10:24:27.251Z,96665.88
2023-03-22T10:26:54.743Z,96658.25
2023-03-22T10:29:42.291Z,96667.81
2023-03-22T10:32:12.496Z,96671.47
2023-03-22T10:34:39.910Z,96650.53
2023-03-22T10:37:07.712Z,96651.41
2023-03-22T10:39:55.239Z,96645.63
2023-03-22T10:42:25.144Z,96647.47
2023-03-22T10:45:03.356Z,96634.94
2023-03-22T10:47:42.664Z,96643.34
2023-03-22T10:50:17.294Z,96640.72
2023-03-22T10:52:57.859Z,96632.56
2023-03-22T10:55:25.735Z,96620.22
2023-03-22T10:58:12.757Z,96625.03
2023-03-22T11:03:40.941Z,96630.13
2023-03-22T11:06:12.129Z,96636.66
2023-03-22T11:08:59.691Z,96615.16
2023-03-22T11:11:31.302Z,96625.91
2023-03-22T11:14:04.727Z,96618.16
2023-03-22T11:16:32.695Z,96625.38
2023-03-22T11:19:02.018Z,96620.44
2023-03-22T11:21:32.283Z,96621.59
2023-03-22T11:24:02.338Z,96616.03
2023-03-22T11:26:35.895Z,96605.75
2023-03-22T11:29:10.860Z,96602.91
2023-03-22T11:32:04.624Z,96605.66
2023-03-22T11:34:32.036Z,96612.50
2023-03-22T11:37:08.050Z,96598.63
2023-03-22T11:39:35.234Z,96599.63
2023-03-22T11:42:06.645Z,96608.34
2023-03-22T11:44:35.785Z,96601.28
2023-03-22T11:47:04.688Z,96593.13
2023-03-22T11:49:38.401Z,96594.72
2023-03-22T11:52:26.445Z,96585.41
2023-03-22T11:54:54.935Z,96584.50
2023-03-22T11:57:24.742Z,96580.25
2023-03-22T12:00:07.279Z,96570.97
2023-03-22T12:02:57.867Z,96559.53
2023-03-22T12:05:27.756Z,96558.56
2023-03-22T12:08:03.884Z,96556.50
2023-03-22T12:10:39.079Z,96563.56
2023-03-22T12:13:11.988Z,96562.94
2023-03-22T12:15:42.261Z,96559.41
2023-03-22T12:18:16.801Z,96546.00
2023-03-22T12:20:54.028Z,96548.88
2023-03-22T12:23:23.593Z,96569.22
2023-03-22T12:25:53.829Z,96557.56
2023-03-22T12:28:23.423Z,96558.22
2023-03-22T12:30:53.441Z,96551.59
2023-03-22T12:33:33.102Z,96553.56
2023-03-22T12:36:05.293Z,96533.50
2023-03-22T12:38:44.367Z,96543.94
2023-03-22T12:41:14.843Z,96549.16
2023-03-22T12:43:42.242Z,96538.81
2023-03-22T12:46:15.541Z,96532.06
2023-03-22T12:48:46.614Z,96547.28
2023-03-22T12:51:14.612Z,96550.00
2023-03-22T12:53:52.135Z,96544.66
2023-03-22T12:56:23.296Z,96550.63
2023-03-22T12:58:52.941Z,96534.25
2023-03-22T13:01:20.657Z,96541.72
2023-03-22T13:03:52.345Z,96546.38
2023-03-22T13:06:33.916Z,96551.81
2023-03-22T13:09:16.740Z,96551.19
2023-03-22T13:11:45.981Z,96558.19
2023-03-22T13:14:33.304Z,96547.38
2023-03-22T13:17:01.410Z,96550.03
2023-03-22T13:19:37.967Z,96552.75
2023-03-22T13:22:16.288Z,96547.16
2023-03-22T13:25:10.659Z,96559.63
2023-03-22T13:27:40.682Z,96556.28
2023-03-22T13:30:34.960Z,96565.13
2023-03-22T13:33:03.877Z,96568.41
2023-03-22T13:35:45.185Z,96561.25
2023-03-22T13:38:19.852Z,96565.41
2023-03-22T13:40:47.169Z,96563.41
2023-03-22T13:43:17.648Z,96567.00
2023-03-22T13:46:17.437Z,96577.19
2023-03-22T13:48:48.019Z,96565.91
2023-03-22T13:51:15.972Z,96572.13
2023-03-22T13:53:47.490Z,96577.91
2023-03-22T13:56:28.325Z,96569.59
2023-03-22T13:58:55.617Z,96574.03
2023-03-22T14:01:29.378Z,96563.59
2023-03-22T14:04:01.560Z,96562.63
2023-03-22T14:06:32.093Z,96546.78
2023-03-22T14:09:02.575Z,96547.06
2023-03-22T14:11:33.215Z,96554.16
2023-03-22T14:14:04.535Z,96562.63
2023-03-22T14:16:38.479Z,96548.78
2023-03-22T14:19:06.735Z,96549.16
2023-03-22T14:21:42.012Z,96548.91
